Terminal Aerodrome Forecast
Issued by NWS Sioux Falls, SD

Home | Current Version | Previous Version | Text Only | Print | Product List | Glossary Off
Versions: 1 2 3 4 5 6 7 8 9 10 11 12 13 14 15

000
FTUS43 KFSD 181131
TAFHON
TAF
KHON 181131Z 1812/1912 VRB03KT P6SM BKN018
     FM181530 12005KT P6SM SKC
     FM181900 16009KT P6SM SKC
     FM190000 18011KT P6SM SCT250=

USA.gov is the U.S. government's official web portal to all federal, state and local government web resources and services.